Time;durP1;ratioP1;P1;durP2;ratioP2;P2;SDS_P1;SDS_P2;PMS_P1;PMS_P2;Temp;Humidity;BMP_temperature;BMP_pressure;BME280_temperature;BME280_humidity;BME280_pressure;Samples;Min_cycle;Max_cycle;Signal;HPM_P1;HPM_P2
2021/08/25 00:01:06;;;;;;;10.53;9.43;;;10.90;99.90;;;;;;5027618;28;20567;-52
2021/08/25 00:03:32;;;;;;;10.33;9.33;;;10.90;99.90;;;;;;5029582;28;20195;-55
2021/08/25 00:05:57;;;;;;;12.63;9.57;;;10.90;99.90;;;;;;5027963;28;20540;-55
2021/08/25 00:08:23;;;;;;;10.33;9.17;;;10.80;99.90;;;;;;5029926;28;20197;-51
2021/08/25 00:10:48;;;;;;;10.30;9.23;;;10.80;99.90;;;;;;5028509;28;20241;-52
2021/08/25 00:13:14;;;;;;;11.23;10.07;;;10.80;99.90;;;;;;5028843;28;20548;-55
2021/08/25 00:15:42;;;;;;;11.40;10.20;;;10.70;99.90;;;;;;5026943;28;20294;-54
2021/08/25 00:18:09;;;;;;;11.23;9.87;;;10.70;99.90;;;;;;5026316;28;20226;-54
2021/08/25 00:20:38;;;;;;;10.40;9.50;;;10.70;99.90;;;;;;5028396;28;20488;-54
2021/08/25 00:23:04;;;;;;;9.50;8.60;;;10.70;99.90;;;;;;5029773;28;20425;-53
2021/08/25 00:25:30;;;;;;;11.30;10.20;;;10.60;99.90;;;;;;5027683;28;20461;-53
2021/08/25 00:27:55;;;;;;;11.50;9.40;;;10.60;99.90;;;;;;5029304;28;20417;-52
2021/08/25 00:30:21;;;;;;;10.40;9.27;;;10.60;99.90;;;;;;5028653;28;20693;-57
2021/08/25 00:32:47;;;;;;;10.70;9.50;;;10.60;99.90;;;;;;5029555;28;20190;-53
2021/08/25 00:35:13;;;;;;;11.90;10.70;;;10.50;99.90;;;;;;5028906;28;20282;-50
2021/08/25 00:37:38;;;;;;;11.00;9.77;;;10.60;99.90;;;;;;5028690;28;20468;-53
2021/08/25 00:40:05;;;;;;;12.07;10.87;;;10.50;99.90;;;;;;5026744;28;20241;-51
2021/08/25 00:42:31;;;;;;;12.03;10.73;;;10.60;99.90;;;;;;5028273;28;20649;-51
2021/08/25 00:45:04;;;;;;;11.70;10.43;;;10.60;99.90;;;;;;5027624;28;20448;-54
2021/08/25 00:47:43;;;;;;;11.70;10.50;;;10.50;99.90;;;;;;5016364;28;20183;-53
2021/08/25 00:50:10;;;;;;;12.57;11.27;;;10.50;99.90;;;;;;5028397;28;20787;-52
2021/08/25 00:52:39;;;;;;;12.00;10.37;;;10.50;99.90;;;;;;5029029;28;20428;-54
2021/08/25 00:55:05;;;;;;;10.50;9.50;;;10.50;99.90;;;;;;5027364;28;20902;-59
2021/08/25 00:57:33;;;;;;;11.67;9.73;;;10.40;99.90;;;;;;5028961;28;20458;-54
2021/08/25 00:59:59;;;;;;;11.40;10.20;;;10.40;99.90;;;;;;5026774;28;20501;-55
2021/08/25 01:02:37;;;;;;;10.80;9.70;;;10.40;99.90;;;;;;5025531;28;20457;-55
2021/08/25 01:05:06;;;;;;;10.30;9.37;;;10.40;99.90;;;;;;5027047;28;20175;-53
2021/08/25 01:07:33;;;;;;;11.60;10.07;;;10.40;99.90;;;;;;5028450;28;20437;-54
2021/08/25 01:09:58;;;;;;;11.13;10.03;;;10.40;99.90;;;;;;5027922;28;20421;-54
2021/08/25 01:12:27;;;;;;;11.33;9.57;;;10.40;99.90;;;;;;5027745;28;20435;-58
2021/08/25 01:14:53;;;;;;;15.77;10.83;;;10.40;99.90;;;;;;5027388;28;20183;-58
2021/08/25 01:17:20;;;;;;;17.13;10.80;;;10.40;99.90;;;;;;5026861;28;20465;-58
2021/08/25 01:20:03;;;;;;;14.70;11.03;;;10.40;99.90;;;;;;5028568;28;20422;-50
2021/08/25 01:22:29;;;;;;;12.70;11.30;;;10.40;99.90;;;;;;5027260;28;20472;-50
2021/08/25 01:24:57;;;;;;;13.23;11.83;;;10.40;99.90;;;;;;5028076;28;20445;-53
2021/08/25 01:27:25;;;;;;;14.80;10.97;;;10.30;99.90;;;;;;5031376;28;21006;-54
2021/08/25 01:29:52;;;;;;;13.87;11.07;;;10.30;99.90;;;;;;5031244;28;20947;-52
2021/08/25 01:32:18;;;;;;;10.77;9.67;;;10.40;99.90;;;;;;5031028;28;20476;-51
2021/08/25 01:35:01;;;;;;;13.07;11.60;;;10.40;99.90;;;;;;5032386;28;20437;-56
2021/08/25 01:37:27;;;;;;;11.60;10.40;;;10.40;99.90;;;;;;5032052;28;21125;-51
2021/08/25 01:39:53;;;;;;;12.23;10.40;;;10.30;99.90;;;;;;5032703;28;20452;-52
2021/08/25 01:42:19;;;;;;;11.37;10.10;;;10.30;99.90;;;;;;5031006;28;20442;-53
2021/08/25 01:44:46;;;;;;;10.87;9.53;;;10.30;99.90;;;;;;5031537;28;20564;-52
2021/08/25 01:47:16;;;;;;;13.63;10.40;;;10.30;99.90;;;;;;5029640;28;20444;-53
2021/08/25 01:49:43;;;;;;;11.00;9.40;;;10.20;99.90;;;;;;5032017;28;20433;-51
2021/08/25 01:52:09;;;;;;;10.90;9.80;;;10.20;99.90;;;;;;5033669;28;20449;-50
2021/08/25 01:54:35;;;;;;;14.43;9.80;;;10.20;99.90;;;;;;5032367;28;20809;-58
2021/08/25 01:57:01;;;;;;;11.60;10.13;;;10.10;99.90;;;;;;5033800;28;20529;-55
2021/08/25 01:59:27;;;;;;;11.60;10.40;;;10.10;99.90;;;;;;5032909;28;20433;-51
2021/08/25 02:01:52;;;;;;;13.03;10.60;;;10.10;99.90;;;;;;5031946;28;20226;-55
2021/08/25 02:04:18;;;;;;;13.03;10.90;;;10.00;99.90;;;;;;5032650;28;20653;-52
2021/08/25 02:06:43;;;;;;;14.33;12.23;;;10.00;99.90;;;;;;5032373;28;20187;-51
2021/08/25 02:09:09;;;;;;;36.13;31.20;;;10.00;99.90;;;;;;5033206;28;20225;-53
2021/08/25 02:11:34;;;;;;;51.17;41.17;;;10.00;99.90;;;;;;5031765;28;20614;-53
2021/08/25 02:14:00;;;;;;;54.00;46.50;;;10.00;99.90;;;;;;5031243;28;20258;-54
2021/08/25 02:16:25;;;;;;;71.30;56.37;;;10.00;99.90;;;;;;5032646;28;20210;-49
2021/08/25 02:18:51;;;;;;;72.27;59.27;;;10.00;99.90;;;;;;5031768;28;20175;-50
2021/08/25 02:21:19;;;;;;;77.07;62.23;;;9.90;99.90;;;;;;5032465;28;20182;-55
2021/08/25 02:23:44;;;;;;;76.50;60.40;;;9.90;99.90;;;;;;5032585;28;20179;-54
2021/08/25 02:26:16;;;;;;;64.30;52.83;;;9.90;99.90;;;;;;5032382;28;20803;-54
2021/08/25 02:28:45;;;;;;;60.63;49.07;;;9.80;99.90;;;;;;5032577;28;20186;-51
2021/08/25 02:31:11;;;;;;;46.63;37.67;;;9.80;99.90;;;;;;5032197;28;20442;-57
2021/08/25 02:33:37;;;;;;;30.17;25.00;;;9.80;99.90;;;;;;5030537;28;20441;-53
2021/08/25 02:36:04;;;;;;;26.50;23.13;;;9.80;99.90;;;;;;5032439;28;20461;-51
2021/08/25 02:38:29;;;;;;;24.17;20.20;;;9.80;99.90;;;;;;5031683;28;20758;-52
2021/08/25 02:40:55;;;;;;;17.53;14.87;;;9.80;99.90;;;;;;5032653;28;20460;-52
2021/08/25 02:43:20;;;;;;;13.07;11.20;;;9.80;99.90;;;;;;5031510;28;20181;-52
2021/08/25 02:45:46;;;;;;;11.80;10.50;;;9.80;99.90;;;;;;5032832;28;20210;-53
2021/08/25 02:48:11;;;;;;;24.83;12.40;;;9.80;99.90;;;;;;5030922;28;20225;-52
2021/08/25 02:50:37;;;;;;;14.77;10.80;;;9.70;99.90;;;;;;5036028;28;20190;-54
2021/08/25 02:53:03;;;;;;;13.47;11.37;;;9.70;99.90;;;;;;5028466;28;20190;-52
2021/08/25 02:55:28;;;;;;;37.60;27.60;;;9.60;99.90;;;;;;5031063;28;20197;-53
2021/08/25 02:57:54;;;;;;;40.87;29.53;;;9.60;99.90;;;;;;5029404;28;20931;-53
2021/08/25 03:00:19;;;;;;;34.17;28.67;;;9.50;99.90;;;;;;5028368;28;20313;-53
2021/08/25 03:02:45;;;;;;;37.03;27.07;;;9.50;99.90;;;;;;5029735;28;20538;-52
2021/08/25 03:05:11;;;;;;;34.77;25.87;;;9.50;99.90;;;;;;5029454;28;20179;-51
2021/08/25 03:07:36;;;;;;;20.67;15.93;;;9.50;99.90;;;;;;5030205;28;20197;-52
2021/08/25 03:10:03;;;;;;;17.30;13.10;;;9.40;99.90;;;;;;5029452;28;20182;-54
2021/08/25 03:12:28;;;;;;;17.23;11.33;;;9.40;99.90;;;;;;5029555;28;20234;-56
2021/08/25 03:14:54;;;;;;;18.57;11.27;;;9.40;99.90;;;;;;5030245;28;20540;-54
2021/08/25 03:17:19;;;;;;;15.20;11.57;;;9.40;99.90;;;;;;5029258;28;20241;-52
2021/08/25 03:19:45;;;;;;;13.07;11.30;;;9.50;99.90;;;;;;5029876;28;20621;-47
2021/08/25 03:22:10;;;;;;;14.33;11.37;;;9.40;99.90;;;;;;5029475;28;20206;-50
2021/08/25 03:24:36;;;;;;;11.70;10.30;;;9.40;99.90;;;;;;5029488;28;20266;-53
2021/08/25 03:27:02;;;;;;;19.37;12.23;;;9.40;99.90;;;;;;5028144;28;20191;-54
2021/08/25 03:29:27;;;;;;;23.50;11.10;;;9.50;99.90;;;;;;5029295;28;20198;-52
2021/08/25 03:31:53;;;;;;;15.00;11.03;;;9.50;99.90;;;;;;5029513;28;20453;-52
2021/08/25 03:34:18;;;;;;;17.03;10.50;;;9.50;99.90;;;;;;5029950;28;20189;-51
2021/08/25 03:36:44;;;;;;;18.50;10.60;;;9.50;99.90;;;;;;5028968;28;20489;-54
2021/08/25 03:39:09;;;;;;;34.27;11.53;;;9.50;99.90;;;;;;5030120;28;20186;-52
2021/08/25 03:41:35;;;;;;;19.43;11.00;;;9.60;99.90;;;;;;5026971;28;20187;-50
2021/08/25 03:44:01;;;;;;;15.20;10.10;;;9.50;99.90;;;;;;5035331;28;20259;-52
2021/08/25 03:46:27;;;;;;;15.07;10.20;;;9.50;99.90;;;;;;5028840;28;20199;-52
2021/08/25 03:48:53;;;;;;;30.23;10.50;;;9.50;99.90;;;;;;5029188;28;20425;-51
2021/08/25 03:51:19;;;;;;;29.30;10.80;;;9.50;99.90;;;;;;5018877;28;20449;-51
2021/08/25 03:53:45;;;;;;;73.33;12.20;;;9.50;99.90;;;;;;5029638;28;20464;-53
2021/08/25 03:56:10;;;;;;;41.53;10.70;;;9.40;99.90;;;;;;5028694;28;20210;-49
2021/08/25 03:58:36;;;;;;;74.47;12.40;;;9.40;99.90;;;;;;5023162;28;20187;-52
2021/08/25 04:01:02;;;;;;;44.30;11.97;;;9.40;99.90;;;;;;5029307;28;20226;-53
2021/08/25 04:03:27;;;;;;;44.97;10.67;;;9.40;99.90;;;;;;5028820;28;21175;-52
2021/08/25 04:05:53;;;;;;;28.83;10.53;;;9.50;99.90;;;;;;5026347;28;20274;-53
2021/08/25 04:08:18;;;;;;;36.10;10.60;;;9.50;99.90;;;;;;5028436;28;20190;-54
2021/08/25 04:10:44;;;;;;;26.00;10.53;;;9.50;99.90;;;;;;5029335;28;20281;-51
2021/08/25 04:13:09;;;;;;;29.80;12.10;;;9.50;99.90;;;;;;5025487;28;20213;-50
2021/08/25 04:15:35;;;;;;;32.83;11.00;;;9.50;99.90;;;;;;5026374;28;20661;-54
2021/08/25 04:18:00;;;;;;;24.43;11.10;;;9.60;99.90;;;;;;5032096;28;20253;-53
2021/08/25 04:20:26;;;;;;;37.00;11.27;;;9.60;99.90;;;;;;5029226;28;20191;-51
2021/08/25 04:22:51;;;;;;;24.03;11.07;;;9.70;99.90;;;;;;5023409;28;20182;-54
2021/08/25 04:25:17;;;;;;;40.60;11.43;;;9.80;99.90;;;;;;5015559;28;20183;-53
2021/08/25 04:27:42;;;;;;;29.60;11.20;;;9.90;99.90;;;;;;5019315;28;20980;-54
2021/08/25 04:30:09;;;;;;;14.27;10.50;;;9.90;99.90;;;;;;5019349;28;20199;-51
2021/08/25 04:32:34;;;;;;;25.80;10.80;;;10.00;99.90;;;;;;5032422;28;20897;-55
2021/08/25 04:35:00;;;;;;;22.53;9.60;;;10.00;99.90;;;;;;5014371;28;20472;-51
2021/08/25 04:37:25;;;;;;;26.77;12.40;;;10.00;99.90;;;;;;5018513;28;20214;-55
2021/08/25 04:39:51;;;;;;;17.70;9.50;;;10.10;99.90;;;;;;5015760;28;20189;-52
2021/08/25 04:42:16;;;;;;;47.50;11.90;;;10.10;99.90;;;;;;5018184;28;20182;-54
2021/08/25 04:44:42;;;;;;;31.87;10.00;;;10.10;99.90;;;;;;5028106;28;20568;-52
2021/08/25 04:47:07;;;;;;;19.20;10.33;;;10.20;99.90;;;;;;5029317;28;20182;-52
2021/08/25 04:49:42;;;;;;;20.40;11.03;;;10.20;99.90;;;;;;5029317;28;20238;-52
2021/08/25 04:52:43;;;;;;;26.13;10.23;;;10.20;99.90;;;;;;5026982;28;20270;-50
2021/08/25 04:55:29;;;;;;;29.40;9.53;;;10.30;99.90;;;;;;5023808;28;20551;-52
2021/08/25 04:57:54;;;;;;;25.20;10.60;;;10.30;99.90;;;;;;5029047;28;20456;-50
2021/08/25 05:00:20;;;;;;;22.50;10.03;;;10.20;99.90;;;;;;5025872;28;20580;-54
2021/08/25 05:02:45;;;;;;;23.60;10.00;;;10.20;99.90;;;;;;5031308;28;20179;-51
2021/08/25 05:05:11;;;;;;;12.40;9.63;;;10.30;99.90;;;;;;5032666;28;20177;-51
2021/08/25 05:07:37;;;;;;;20.50;9.57;;;10.30;99.90;;;;;;5033739;28;20190;-52
2021/08/25 05:10:02;;;;;;;17.60;9.50;;;10.30;99.90;;;;;;5033333;28;20182;-54
2021/08/25 05:12:28;;;;;;;17.63;10.13;;;10.30;99.90;;;;;;5031545;28;20217;-52
2021/08/25 05:14:54;;;;;;;16.07;10.33;;;10.30;99.90;;;;;;5032298;28;20433;-51
2021/08/25 05:17:19;;;;;;;22.10;11.10;;;10.30;99.90;;;;;;5032139;28;20234;-53
2021/08/25 05:19:45;;;;;;;22.40;10.37;;;10.40;99.90;;;;;;5037446;28;20206;-52
2021/08/25 05:22:10;;;;;;;28.70;12.67;;;10.50;99.90;;;;;;5030314;28;20186;-51
2021/08/25 05:24:36;;;;;;;20.53;10.80;;;10.30;99.90;;;;;;5032718;28;20190;-51
2021/08/25 05:27:03;;;;;;;19.00;9.87;;;10.30;99.90;;;;;;5031735;28;20213;-52
2021/08/25 05:29:28;;;;;;;21.87;11.80;;;10.40;99.90;;;;;;5032846;28;20915;-51
2021/08/25 05:31:54;;;;;;;18.47;10.57;;;10.40;99.90;;;;;;5032500;28;20503;-50
2021/08/25 05:34:19;;;;;;;12.50;11.20;;;10.50;99.90;;;;;;5031653;28;20233;-52
2021/08/25 05:36:45;;;;;;;15.47;12.90;;;10.50;99.90;;;;;;5032269;28;20207;-53
2021/08/25 05:39:11;;;;;;;18.03;11.43;;;10.50;99.90;;;;;;5032679;28;20175;-53
2021/08/25 05:41:36;;;;;;;15.33;11.80;;;10.50;99.90;;;;;;5041697;28;20537;-52
2021/08/25 05:44:04;;;;;;;19.10;12.10;;;10.60;99.90;;;;;;5032671;28;20232;-51
2021/08/25 05:46:33;;;;;;;13.63;10.50;;;10.60;99.90;;;;;;5030795;28;20696;-53
2021/08/25 05:48:59;;;;;;;18.90;12.80;;;10.70;99.90;;;;;;5032183;28;20529;-52
2021/08/25 05:51:25;;;;;;;17.23;12.90;;;10.70;99.90;;;;;;5032147;28;20433;-48
2021/08/25 05:53:52;;;;;;;18.17;13.13;;;10.80;99.90;;;;;;5030287;28;20929;-52
2021/08/25 05:56:18;;;;;;;16.07;12.40;;;10.90;99.90;;;;;;5032146;28;20653;-54
2021/08/25 05:58:43;;;;;;;15.20;11.83;;;11.10;99.90;;;;;;5030759;28;20429;-51
2021/08/25 06:01:12;;;;;;;15.70;11.23;;;11.20;99.90;;;;;;5031438;28;20465;-52
2021/08/25 06:03:38;;;;;;;14.53;12.00;;;11.10;99.90;;;;;;5030750;28;20186;-55
2021/08/25 06:06:03;;;;;;;14.60;11.97;;;11.10;99.90;;;;;;5034209;28;20426;-55
2021/08/25 06:08:29;;;;;;;16.97;11.80;;;11.20;99.90;;;;;;5031414;28;20225;-54
2021/08/25 06:10:54;;;;;;;13.83;12.13;;;11.30;99.90;;;;;;5031725;28;20281;-50
2021/08/25 06:13:20;;;;;;;13.70;12.00;;;11.30;99.90;;;;;;5030851;28;20182;-53
2021/08/25 06:15:45;;;;;;;17.77;13.83;;;11.40;99.90;;;;;;5031559;28;20608;-51
2021/08/25 06:18:11;;;;;;;17.70;14.63;;;11.40;99.90;;;;;;5031849;28;20179;-48
2021/08/25 06:20:36;;;;;;;18.87;14.03;;;11.50;99.90;;;;;;5031916;28;20179;-53
2021/08/25 06:23:02;;;;;;;15.70;12.70;;;11.60;99.90;;;;;;5030528;28;20222;-54
2021/08/25 06:25:28;;;;;;;17.40;14.10;;;11.70;99.90;;;;;;5031772;28;20205;-52
2021/08/25 06:27:54;;;;;;;15.17;12.83;;;11.80;99.90;;;;;;5029577;28;20434;-55
2021/08/25 06:30:20;;;;;;;16.20;14.10;;;11.90;99.90;;;;;;5031458;28;20174;-53
2021/08/25 06:32:45;;;;;;;15.90;13.83;;;11.90;99.90;;;;;;5030157;28;20433;-52
2021/08/25 06:35:11;;;;;;;16.57;14.30;;;11.90;99.90;;;;;;5031565;28;20426;-50
2021/08/25 06:37:37;;;;;;;14.97;13.30;;;12.00;99.90;;;;;;5030807;28;20210;-49
2021/08/25 06:40:03;;;;;;;16.00;13.37;;;12.00;99.90;;;;;;5031354;28;20191;-56
2021/08/25 06:42:29;;;;;;;16.33;14.60;;;12.00;99.90;;;;;;5030055;28;20241;-53
2021/08/25 06:44:54;;;;;;;21.00;14.50;;;11.90;99.90;;;;;;5030852;28;20426;-53
2021/08/25 06:47:20;;;;;;;18.20;15.57;;;11.80;99.90;;;;;;5031509;28;21031;-55
2021/08/25 06:49:45;;;;;;;18.17;15.00;;;11.80;99.90;;;;;;5030902;28;20209;-50
2021/08/25 06:52:11;;;;;;;18.47;15.00;;;11.80;99.90;;;;;;5030518;28;20202;-53
2021/08/25 06:54:36;;;;;;;16.57;14.30;;;11.80;99.90;;;;;;5031168;28;20241;-55
2021/08/25 06:57:02;;;;;;;17.27;14.87;;;11.70;99.90;;;;;;5031079;28;20199;-54
2021/08/25 06:59:27;;;;;;;17.57;14.70;;;11.70;99.90;;;;;;5030010;28;20213;-53
2021/08/25 07:01:53;;;;;;;20.37;15.20;;;11.70;99.90;;;;;;5030959;28;20234;-53
2021/08/25 07:04:18;;;;;;;19.27;15.20;;;11.80;99.90;;;;;;5030969;28;20245;-53
2021/08/25 07:06:44;;;;;;;16.10;14.30;;;11.90;99.90;;;;;;5029953;28;20187;-53
2021/08/25 07:09:10;;;;;;;16.33;14.63;;;11.90;99.90;;;;;;5030715;28;20240;-55
2021/08/25 07:11:35;;;;;;;15.07;13.47;;;12.00;99.90;;;;;;5030856;28;20183;-50
2021/08/25 07:14:02;;;;;;;15.57;13.30;;;12.10;99.90;;;;;;5028543;28;20224;-56
2021/08/25 07:16:27;;;;;;;16.10;13.40;;;12.20;99.90;;;;;;5030669;28;20209;-52
2021/08/25 07:18:53;;;;;;;15.90;14.30;;;12.20;99.90;;;;;;5028885;28;20426;-55
2021/08/25 07:21:18;;;;;;;21.77;13.93;;;12.20;99.90;;;;;;5027945;28;20183;-54
2021/08/25 07:23:50;;;;;;;18.33;13.33;;;12.20;99.90;;;;;;5029878;28;20186;-54
2021/08/25 07:26:16;;;;;;;14.17;12.67;;;12.40;99.90;;;;;;5029168;28;20536;-53
2021/08/25 07:28:43;;;;;;;16.43;13.30;;;12.60;99.90;;;;;;5030243;28;20437;-52
2021/08/25 07:31:12;;;;;;;14.97;13.40;;;12.70;99.90;;;;;;5029225;28;20178;-55
2021/08/25 07:33:39;;;;;;;13.50;12.10;;;12.90;99.90;;;;;;5030638;28;20413;-52
2021/08/25 07:36:05;;;;;;;13.47;12.07;;;13.00;99.90;;;;;;5030063;28;20466;-55
2021/08/25 07:38:31;;;;;;;13.07;11.77;;;13.10;99.90;;;;;;5029404;28;20421;-53
2021/08/25 07:40:56;;;;;;;13.03;11.30;;;13.20;99.90;;;;;;5028732;28;20761;-55
2021/08/25 07:43:22;;;;;;;12.43;11.13;;;13.30;99.90;;;;;;5030474;28;20183;-57
2021/08/25 07:45:48;;;;;;;11.97;10.77;;;13.40;99.90;;;;;;5030109;28;20260;-56
2021/08/25 07:48:14;;;;;;;13.10;11.07;;;13.50;99.90;;;;;;5029205;28;21288;-54
2021/08/25 07:50:39;;;;;;;11.90;10.70;;;13.60;99.90;;;;;;5029964;28;20187;-53
2021/08/25 07:53:05;;;;;;;13.03;11.30;;;13.80;99.90;;;;;;5029511;28;20248;-54
2021/08/25 07:55:30;;;;;;;11.03;9.93;;;14.10;99.90;;;;;;5029924;28;20630;-53
2021/08/25 07:57:56;;;;;;;11.63;10.43;;;14.20;99.90;;;;;;5030089;28;20278;-53
2021/08/25 08:00:21;;;;;;;11.60;10.10;;;14.30;99.90;;;;;;5028860;28;20587;-54
2021/08/25 08:02:47;;;;;;;11.60;9.40;;;14.50;99.90;;;;;;5030165;28;20657;-54
2021/08/25 08:05:12;;;;;;;10.10;9.20;;;14.60;99.90;;;;;;5029132;28;20191;-56
2021/08/25 08:07:38;;;;;;;9.90;8.90;;;14.90;99.90;;;;;;5029706;28;20187;-53
2021/08/25 08:10:05;;;;;;;9.70;8.80;;;15.10;99.90;;;;;;5029674;28;20568;-55
2021/08/25 08:12:30;;;;;;;9.90;8.90;;;15.30;99.90;;;;;;5029666;28;20904;-56
2021/08/25 08:14:56;;;;;;;9.50;8.50;;;15.40;99.90;;;;;;5028959;28;20429;-55
2021/08/25 08:17:22;;;;;;;8.70;7.87;;;15.60;99.90;;;;;;5029619;28;20209;-53
2021/08/25 08:19:48;;;;;;;8.47;7.67;;;15.80;99.90;;;;;;5029422;28;20553;-55
2021/08/25 08:22:14;;;;;;;8.30;7.50;;;16.00;99.90;;;;;;5029586;28;20420;-56
2021/08/25 08:24:40;;;;;;;8.13;7.33;;;16.20;99.90;;;;;;5028598;28;20425;-54
2021/08/25 08:27:06;;;;;;;8.10;7.40;;;16.30;99.90;;;;;;5029377;28;20190;-57
2021/08/25 08:29:31;;;;;;;8.33;7.43;;;16.60;99.90;;;;;;5028539;28;20191;-56
2021/08/25 08:31:57;;;;;;;8.53;7.63;;;16.80;99.90;;;;;;5029577;28;20425;-53
2021/08/25 08:34:23;;;;;;;6.80;6.20;;;17.10;99.90;;;;;;5028544;28;20235;-54
2021/08/25 08:36:48;;;;;;;7.00;6.30;;;17.40;99.90;;;;;;5028578;28;20205;-53
2021/08/25 08:39:14;;;;;;;7.23;6.43;;;17.60;99.90;;;;;;5029439;28;20559;-54
2021/08/25 08:41:41;;;;;;;6.27;5.67;;;17.80;99.90;;;;;;5029253;28;20185;-57
2021/08/25 08:44:10;;;;;;;6.10;5.50;;;18.20;99.90;;;;;;5028573;28;20962;-54
2021/08/25 08:46:38;;;;;;;6.00;5.40;;;18.50;99.90;;;;;;5023276;28;20492;-56
2021/08/25 08:49:04;;;;;;;6.27;5.60;;;18.80;99.90;;;;;;5027320;28;20464;-54
2021/08/25 08:51:30;;;;;;;5.73;5.13;;;19.10;99.90;;;;;;5028799;28;20812;-54
2021/08/25 08:53:56;;;;;;;6.00;5.40;;;19.60;99.90;;;;;;5028620;28;20294;-57
2021/08/25 08:56:22;;;;;;;5.90;5.40;;;20.20;99.90;;;;;;5028491;28;20220;-55
2021/08/25 08:58:48;;;;;;;5.60;5.10;;;20.70;99.90;;;;;;5028280;28;20476;-54
2021/08/25 09:01:14;;;;;;;6.00;5.40;;;20.90;98.90;;;;;;5028743;28;20234;-53
2021/08/25 09:03:41;;;;;;;4.67;4.27;;;21.40;96.80;;;;;;5028697;28;20803;-51
2021/08/25 09:06:08;;;;;;;4.90;4.50;;;21.70;95.00;;;;;;5028840;28;20175;-55
2021/08/25 09:08:36;;;;;;;5.07;4.67;;;22.20;94.20;;;;;;5028680;28;20437;-56
2021/08/25 09:11:11;;;;;;;4.83;4.20;;;22.80;94.60;;;;;;5028342;28;20478;-55
2021/08/25 09:13:40;;;;;;;6.10;5.50;;;23.70;90.70;;;;;;5028613;28;20940;-56
2021/08/25 09:16:06;;;;;;;4.73;4.33;;;24.40;90.60;;;;;;5028559;28;20454;-58
2021/08/25 09:18:31;;;;;;;4.60;4.20;;;24.90;82.10;;;;;;5028735;28;20402;-52
2021/08/25 09:20:57;;;;;;;5.03;4.63;;;25.10;71.60;;;;;;5028516;28;20421;-57
2021/08/25 09:23:25;;;;;;;4.90;4.50;;;25.50;73.20;;;;;;5028327;28;20417;-55
2021/08/25 09:25:56;;;;;;;4.93;4.53;;;26.00;72.20;;;;;;5028805;28;20638;-54
2021/08/25 09:28:28;;;;;;;6.33;4.50;;;26.40;66.90;;;;;;5028026;28;20489;-56
2021/08/25 09:31:13;;;;;;;5.07;4.67;;;26.60;65.00;;;;;;5028184;28;21016;-57
2021/08/25 09:33:44;;;;;;;4.93;4.00;;;26.90;64.50;;;;;;5028272;28;20535;-58
2021/08/25 09:36:13;;;;;;;4.83;4.53;;;27.20;60.00;;;;;;5028404;28;21184;-54
2021/08/25 09:38:40;;;;;;;4.80;4.40;;;27.10;61.80;;;;;;5028479;28;20417;-55
2021/08/25 09:41:11;;;;;;;5.47;5.07;;;27.50;59.80;;;;;;5028304;28;20456;-55
2021/08/25 09:43:46;;;;;;;5.00;4.60;;;27.60;55.90;;;;;;5028311;28;20416;-54
2021/08/25 09:46:22;;;;;;;4.87;4.43;;;27.60;55.20;;;;;;5028304;28;20457;-56
2021/08/25 09:48:49;;;;;;;4.00;3.70;;;28.20;53.30;;;;;;5030434;28;20453;-56
2021/08/25 09:51:18;;;;;;;4.67;4.27;;;28.30;54.30;;;;;;5032148;28;20543;-55
2021/08/25 09:53:46;;;;;;;4.57;4.17;;;28.40;50.40;;;;;;5032051;28;20449;-56
2021/08/25 09:56:22;;;;;;;4.57;4.27;;;28.10;51.00;;;;;;5031678;28;20493;-53
2021/08/25 09:58:48;;;;;;;4.20;3.90;;;28.10;52.90;;;;;;5023617;28;20406;-51
2021/08/25 10:01:16;;;;;;;4.40;4.00;;;28.40;50.50;;;;;;5030260;28;20469;-54
2021/08/25 10:03:42;;;;;;;5.13;4.30;;;28.50;50.90;;;;;;5030954;28;20446;-55
2021/08/25 10:06:08;;;;;;;4.93;4.53;;;29.10;50.30;;;;;;5030625;28;20421;-54
2021/08/25 10:08:34;;;;;;;4.93;4.53;;;29.10;48.50;;;;;;5031026;28;20237;-57
2021/08/25 10:11:02;;;;;;;4.57;4.20;;;29.50;49.80;;;;;;5029731;28;20417;-56
2021/08/25 10:13:28;;;;;;;4.50;4.20;;;29.60;47.30;;;;;;5031661;28;20425;-55
2021/08/25 10:15:54;;;;;;;4.70;4.40;;;29.40;47.40;;;;;;5031021;28;20541;-56
2021/08/25 10:18:21;;;;;;;4.23;3.93;;;29.40;47.10;;;;;;5030712;28;20533;-53
2021/08/25 10:20:47;;;;;;;4.27;4.03;;;29.60;46.80;;;;;;5031931;28;20267;-55
2021/08/25 10:23:12;;;;;;;4.63;4.23;;;29.40;50.50;;;;;;5031262;28;20460;-58
2021/08/25 10:26:05;;;;;;;4.93;4.63;;;29.70;47.20;;;;;;5030895;28;20190;-57
2021/08/25 10:28:59;;;;;;;4.30;4.00;;;29.50;44.70;;;;;;5030502;28;20706;-54
2021/08/25 10:31:26;;;;;;;4.33;3.93;;;29.00;46.10;;;;;;5031341;28;20437;-56
2021/08/25 10:34:12;;;;;;;6.03;5.43;;;29.10;49.70;;;;;;5030704;28;20427;-57
2021/08/25 10:36:38;;;;;;;4.47;4.17;;;29.30;49.00;;;;;;5031744;28;20578;-54
2021/08/25 10:39:03;;;;;;;5.50;4.83;;;29.70;48.80;;;;;;5016897;28;20997;-55
2021/08/25 10:41:29;;;;;;;4.63;4.33;;;30.50;44.20;;;;;;5030763;28;20259;-53
2021/08/25 10:43:55;;;;;;;5.80;5.40;;;30.60;40.80;;;;;;5031192;28;20189;-57
2021/08/25 10:46:21;;;;;;;4.87;4.47;;;30.40;45.50;;;;;;5030618;28;20508;-55
2021/08/25 10:48:48;;;;;;;5.97;5.47;;;30.60;43.80;;;;;;5031263;28;20472;-57
2021/08/25 10:51:30;;;;;;;5.27;4.90;;;30.70;42.60;;;;;;5030639;28;20257;-56
2021/08/25 10:53:57;;;;;;;4.77;4.47;;;30.10;41.30;;;;;;5031187;28;20412;-55
2021/08/25 10:56:22;;;;;;;5.40;5.00;;;29.90;44.20;;;;;;5031048;28;20460;-56
2021/08/25 10:58:51;;;;;;;5.07;4.73;;;29.60;40.90;;;;;;5030782;28;20436;-54
2021/08/25 11:01:30;;;;;;;5.20;4.80;;;29.50;43.50;;;;;;5029850;28;20610;-57
2021/08/25 11:04:18;;;;;;;4.53;4.13;;;29.70;39.60;;;;;;5031357;28;20410;-56
2021/08/25 11:06:45;;;;;;;4.90;4.50;;;29.60;43.30;;;;;;5031239;28;20410;-57
2021/08/25 11:09:18;;;;;;;4.33;4.03;;;30.00;43.40;;;;;;5026498;28;20440;-54
2021/08/25 11:11:54;;;;;;;5.00;4.70;;;30.40;42.60;;;;;;5030921;28;20486;-53
2021/08/25 11:14:25;;;;;;;4.90;4.60;;;30.90;40.90;;;;;;5030603;28;20436;-55
2021/08/25 11:16:52;;;;;;;4.63;4.23;;;31.70;39.80;;;;;;5030123;28;20465;-56
2021/08/25 11:19:26;;;;;;;4.27;3.97;;;32.00;37.60;;;;;;5029554;28;20479;-55
2021/08/25 11:21:52;;;;;;;4.53;4.30;;;32.30;36.40;;;;;;5018507;28;20421;-55
2021/08/25 11:24:18;;;;;;;4.60;4.20;;;32.60;35.40;;;;;;5030054;28;20410;-53
2021/08/25 11:26:44;;;;;;;4.63;4.23;;;32.80;35.90;;;;;;5017503;28;20418;-57
2021/08/25 11:29:21;;;;;;;4.47;4.27;;;32.80;33.00;;;;;;5030707;28;20183;-56
2021/08/25 11:31:48;;;;;;;4.90;4.50;;;32.30;33.60;;;;;;5029314;28;20572;-57
2021/08/25 11:34:15;;;;;;;5.00;4.60;;;32.50;35.20;;;;;;5030274;28;20409;-54
2021/08/25 11:37:03;;;;;;;5.07;4.77;;;32.50;33.00;;;;;;5029181;28;20962;-55
2021/08/25 11:39:30;;;;;;;4.93;4.53;;;31.90;34.20;;;;;;5030405;28;20472;-55
2021/08/25 11:41:57;;;;;;;5.07;4.60;;;31.50;35.50;;;;;;5017122;28;20509;-56
2021/08/25 11:44:43;;;;;;;4.57;4.27;;;31.50;35.50;;;;;;5030298;28;20448;-57
2021/08/25 11:47:17;;;;;;;4.90;4.60;;;31.70;35.20;;;;;;5029566;28;20430;-55
2021/08/25 11:49:44;;;;;;;5.30;4.90;;;31.80;35.20;;;;;;5029760;28;20406;-56
2021/08/25 11:52:10;;;;;;;4.40;4.10;;;31.10;34.00;;;;;;5028302;28;20441;-57
2021/08/25 11:54:38;;;;;;;7.00;6.40;;;31.60;37.30;;;;;;5030025;28;20475;-57
2021/08/25 11:57:05;;;;;;;4.77;4.40;;;31.90;36.30;;;;;;5030112;28;20461;-58
2021/08/25 11:59:31;;;;;;;4.57;4.23;;;32.60;34.80;;;;;;5030110;28;20418;-56
2021/08/25 12:02:04;;;;;;;4.77;4.47;;;32.70;34.00;;;;;;5028773;28;20469;-55
2021/08/25 12:04:30;;;;;;;4.90;4.43;;;32.40;32.30;;;;;;5030338;28;20183;-57
2021/08/25 12:06:55;;;;;;;5.07;4.77;;;32.10;32.60;;;;;;5029695;28;21209;-56
2021/08/25 12:09:29;;;;;;;5.33;4.93;;;32.70;30.80;;;;;;5029695;28;20677;-55
2021/08/25 12:11:55;;;;;;;4.60;4.30;;;32.50;31.30;;;;;;5029430;28;20436;-56
2021/08/25 12:14:21;;;;;;;4.63;4.40;;;32.50;28.90;;;;;;5028215;28;20433;-55
2021/08/25 12:17:07;;;;;;;4.40;4.20;;;32.20;28.80;;;;;;5029424;28;20328;-56
2021/08/25 12:19:34;;;;;;;4.60;4.30;;;32.00;30.10;;;;;;5028330;28;20179;-57
2021/08/25 12:22:29;;;;;;;4.30;4.10;;;31.80;31.20;;;;;;5029646;28;20581;-55
2021/08/25 12:24:55;;;;;;;4.60;4.27;;;32.30;31.30;;;;;;5028762;28;20421;-56
2021/08/25 12:27:22;;;;;;;4.73;4.43;;;32.40;31.30;;;;;;5028594;28;20437;-57
2021/08/25 12:29:47;;;;;;;4.90;4.60;;;32.80;32.20;;;;;;5029320;28;20749;-57
2021/08/25 12:32:13;;;;;;;4.87;4.57;;;32.50;28.30;;;;;;5026616;28;20449;-56
2021/08/25 12:34:56;;;;;;;4.50;4.20;;;32.40;29.20;;;;;;5029666;28;20189;-57
2021/08/25 12:37:21;;;;;;;4.50;4.20;;;32.60;28.80;;;;;;5027586;28;20615;-58